Time;durP1;ratioP1;P1;durP2;ratioP2;P2;SDS_P1;SDS_P2;PMS_P1;PMS_P2;Temp;Humidity;BMP_temperature;BMP_pressure;BME280_temperature;BME280_humidity;BME280_pressure;Samples;Min_cycle;Max_cycle;Signal;HPM_P1;HPM_P2
2022/11/25 00:00:26;;;;;;;18.33;4.00;;;9.80;99.90;;;;;;5058362;28;20469;-71
2022/11/25 00:02:51;;;;;;;19.20;4.32;;;9.70;99.90;;;;;;5058730;28;20449;-70
2022/11/25 00:05:17;;;;;;;6.38;2.80;;;9.70;99.90;;;;;;5073108;28;20025;-70
2022/11/25 00:07:42;;;;;;;22.08;4.78;;;9.70;99.90;;;;;;5075868;28;20095;-70
2022/11/25 00:10:08;;;;;;;13.57;3.45;;;9.60;99.90;;;;;;5074858;28;20042;-71
2022/11/25 00:12:34;;;;;;;20.17;5.18;;;9.60;99.90;;;;;;5075648;28;20467;-70
2022/11/25 00:15:00;;;;;;;27.52;4.25;;;9.60;99.90;;;;;;5062606;28;20041;-70
2022/11/25 00:17:25;;;;;;;20.85;3.95;;;9.50;99.90;;;;;;5071107;28;20016;-71
2022/11/25 00:19:51;;;;;;;17.98;4.53;;;9.50;99.90;;;;;;5065637;28;20051;-71
2022/11/25 00:22:16;;;;;;;19.00;3.75;;;9.50;99.90;;;;;;5070320;28;20333;-71
2022/11/25 00:24:42;;;;;;;17.40;4.68;;;9.60;99.90;;;;;;5074532;28;20016;-71
2022/11/25 00:27:08;;;;;;;17.23;4.43;;;9.60;99.90;;;;;;5073201;28;20074;-72
2022/11/25 00:29:34;;;;;;;18.35;6.00;;;9.60;99.90;;;;;;5074314;28;20017;-71
2022/11/25 00:31:59;;;;;;;20.70;5.28;;;9.60;99.90;;;;;;5074273;28;20364;-72
2022/11/25 00:34:25;;;;;;;10.10;3.63;;;9.60;99.90;;;;;;5072239;28;20384;-71
2022/11/25 00:36:52;;;;;;;23.38;6.00;;;9.60;99.90;;;;;;5074145;28;20131;-71
2022/11/25 00:39:18;;;;;;;18.80;4.28;;;9.50;99.90;;;;;;5063103;28;20070;-71
2022/11/25 00:44:36;;;;;;;12.05;2.30;;;9.60;99.90;;;;;;5075321;28;20375;-71
2022/11/25 00:47:11;;;;;;;9.07;1.70;;;9.60;99.90;;;;;;5075393;28;20357;-72
2022/11/25 00:49:45;;;;;;;9.80;1.83;;;9.50;99.90;;;;;;5074602;28;20106;-72
2022/11/25 00:52:18;;;;;;;7.50;1.80;;;9.50;99.90;;;;;;5074798;28;20035;-72
2022/11/25 00:54:44;;;;;;;4.68;1.83;;;9.50;99.90;;;;;;5073778;28;20103;-72
2022/11/25 00:57:11;;;;;;;7.53;1.98;;;9.50;99.90;;;;;;5059280;28;20487;-72
2022/11/25 00:59:36;;;;;;;8.57;1.58;;;9.40;99.90;;;;;;5074807;28;20066;-71
2022/11/25 01:02:02;;;;;;;4.38;0.95;;;9.40;99.90;;;;;;5072983;28;20030;-72
2022/11/25 01:04:27;;;;;;;5.97;1.92;;;9.30;99.90;;;;;;5074877;28;20091;-72
2022/11/25 01:06:55;;;;;;;7.50;1.38;;;9.30;99.90;;;;;;5075123;28;20035;-72
2022/11/25 01:09:21;;;;;;;5.88;0.80;;;9.30;99.90;;;;;;5074813;28;20016;-72
2022/11/25 01:11:50;;;;;;;6.47;2.40;;;9.20;99.90;;;;;;5075139;28;20107;-72
2022/11/25 01:14:16;;;;;;;1.85;0.68;;;9.20;99.90;;;;;;5055084;28;20112;-71
2022/11/25 01:16:42;;;;;;;1.90;0.80;;;9.10;99.90;;;;;;5054620;28;20036;-71
2022/11/25 01:19:07;;;;;;;4.03;1.10;;;9.10;99.90;;;;;;5062386;28;20017;-72
2022/11/25 01:21:33;;;;;;;3.60;0.50;;;9.00;99.90;;;;;;5074696;28;20024;-72
2022/11/25 01:24:00;;;;;;;2.75;0.70;;;9.00;99.90;;;;;;5074961;28;20027;-72
2022/11/25 01:26:27;;;;;;;7.32;1.95;;;8.90;99.90;;;;;;5074620;28;20132;-72
2022/11/25 01:28:56;;;;;;;4.85;1.35;;;9.00;99.90;;;;;;5074019;28;20025;-71
2022/11/25 01:31:23;;;;;;;5.70;1.67;;;9.00;99.90;;;;;;5054345;28;20039;-72
2022/11/25 01:33:57;;;;;;;7.93;1.90;;;9.00;99.90;;;;;;5054568;28;20139;-72
2022/11/25 01:36:23;;;;;;;7.15;2.55;;;9.00;99.90;;;;;;5054183;28;20032;-72
2022/11/25 01:38:52;;;;;;;8.57;2.70;;;9.00;99.90;;;;;;5072239;28;20024;-71
2022/11/25 01:41:18;;;;;;;8.30;3.70;;;9.10;99.90;;;;;;5074255;28;20025;-71
2022/11/25 01:44:01;;;;;;;21.85;5.78;;;9.10;99.90;;;;;;5074601;28;20163;-71
2022/11/25 01:46:30;;;;;;;17.17;5.97;;;9.20;99.90;;;;;;5069228;28;20025;-72
2022/11/25 01:49:02;;;;;;;14.35;5.18;;;9.30;99.90;;;;;;5053816;28;20099;-71
2022/11/25 01:51:39;;;;;;;20.65;6.53;;;9.30;99.90;;;;;;5062046;28;20025;-71
2022/11/25 01:54:06;;;;;;;19.60;5.93;;;9.40;99.90;;;;;;5074334;28;20449;-71
2022/11/25 01:56:43;;;;;;;23.17;7.32;;;9.40;99.90;;;;;;5073966;28;20032;-71
2022/11/25 01:59:08;;;;;;;22.23;8.02;;;9.50;99.90;;;;;;5073915;28;20444;-71
2022/11/25 02:01:34;;;;;;;18.92;5.68;;;9.50;99.90;;;;;;5073947;28;20078;-71
2022/11/25 02:04:00;;;;;;;27.95;7.75;;;9.60;99.90;;;;;;5072732;28;20024;-71
2022/11/25 02:06:31;;;;;;;23.23;8.70;;;9.60;99.90;;;;;;5073810;28;20037;-71
2022/11/25 02:09:06;;;;;;;22.80;7.82;;;9.60;99.90;;;;;;5089348;28;20024;-72
2022/11/25 02:11:34;;;;;;;23.05;8.23;;;9.60;99.90;;;;;;5073579;28;20486;-71
2022/11/25 02:14:01;;;;;;;28.80;9.05;;;9.70;99.90;;;;;;5073445;28;20082;-72
2022/11/25 02:16:27;;;;;;;19.95;6.13;;;9.70;99.90;;;;;;5066466;28;20052;-71
2022/11/25 02:18:53;;;;;;;22.95;7.32;;;9.70;99.90;;;;;;5054059;28;20020;-72
2022/11/25 02:21:39;;;;;;;22.77;7.32;;;9.70;99.90;;;;;;5054016;28;20040;-71
2022/11/25 02:24:28;;;;;;;19.90;7.03;;;9.70;99.90;;;;;;5053802;28;20059;-70
2022/11/25 02:26:54;;;;;;;17.05;5.50;;;9.70;99.90;;;;;;5054055;28;20416;-70
2022/11/25 02:29:19;;;;;;;20.83;6.55;;;9.70;99.90;;;;;;5053285;28;20021;-71
2022/11/25 02:31:49;;;;;;;19.05;6.07;;;9.70;99.90;;;;;;5053307;28;20056;-71
2022/11/25 02:34:14;;;;;;;18.75;6.88;;;9.70;99.90;;;;;;5053349;28;20021;-70
2022/11/25 02:36:40;;;;;;;18.55;6.43;;;9.70;99.90;;;;;;5053113;28;20024;-71
2022/11/25 02:39:06;;;;;;;27.63;8.05;;;9.70;99.90;;;;;;5053574;28;20029;-71
2022/11/25 02:41:36;;;;;;;28.17;8.93;;;9.70;99.90;;;;;;5053385;28;20398;-71
2022/11/25 02:44:02;;;;;;;27.20;8.38;;;9.70;99.90;;;;;;5072955;28;20111;-71
2022/11/25 02:46:29;;;;;;;27.90;7.35;;;9.80;99.90;;;;;;5067201;28;20081;-72
2022/11/25 02:48:56;;;;;;;21.92;6.60;;;9.70;99.90;;;;;;5072520;28;20100;-71
2022/11/25 02:51:24;;;;;;;20.63;7.35;;;9.80;99.90;;;;;;5069184;28;20405;-71
2022/11/25 02:53:51;;;;;;;22.35;6.78;;;9.80;99.90;;;;;;5071691;28;20025;-71
2022/11/25 02:56:20;;;;;;;25.80;7.65;;;9.80;99.90;;;;;;5072383;28;20098;-71
2022/11/25 02:58:46;;;;;;;23.27;8.15;;;9.80;99.90;;;;;;5072719;28;20031;-70
2022/11/25 03:01:11;;;;;;;26.55;7.32;;;9.80;99.90;;;;;;5073219;28;20021;-70
2022/11/25 03:03:37;;;;;;;19.95;8.40;;;9.80;99.90;;;;;;5072909;28;20036;-71
2022/11/25 03:06:03;;;;;;;26.33;7.85;;;9.80;99.90;;;;;;5073454;28;20440;-70
2022/11/25 03:08:28;;;;;;;21.45;7.63;;;9.80;99.90;;;;;;5073327;28;20463;-71
2022/11/25 03:10:54;;;;;;;30.35;8.60;;;9.80;99.90;;;;;;5069918;28;20012;-71
2022/11/25 03:13:21;;;;;;;22.70;8.18;;;9.80;99.90;;;;;;5067239;28;20024;-70
2022/11/25 03:15:47;;;;;;;21.85;8.82;;;9.80;99.90;;;;;;5072802;28;20075;-71
2022/11/25 03:18:13;;;;;;;29.83;8.25;;;9.80;99.90;;;;;;5057273;28;20391;-72
2022/11/25 03:20:38;;;;;;;29.52;8.77;;;9.80;99.90;;;;;;5067983;28;20099;-71
2022/11/25 03:23:05;;;;;;;24.48;8.10;;;9.80;99.90;;;;;;5060779;28;20066;-71
2022/11/25 03:25:33;;;;;;;28.30;6.93;;;9.80;99.90;;;;;;5072205;28;20031;-71
2022/11/25 03:27:59;;;;;;;24.85;8.70;;;9.80;99.90;;;;;;5072834;28;20029;-70
2022/11/25 03:30:26;;;;;;;32.20;8.23;;;9.80;99.90;;;;;;5072058;28;20032;-71
2022/11/25 03:32:52;;;;;;;25.50;7.25;;;9.70;99.90;;;;;;5072799;28;20055;-71
2022/11/25 03:35:18;;;;;;;29.83;7.95;;;9.70;99.90;;;;;;5062062;28;20107;-70
2022/11/25 03:37:44;;;;;;;26.33;7.72;;;9.70;99.90;;;;;;5067186;28;20039;-69
2022/11/25 03:40:11;;;;;;;21.10;7.65;;;9.70;99.90;;;;;;5056012;28;20143;-70
2022/11/25 03:42:37;;;;;;;20.48;5.57;;;9.70;99.90;;;;;;5070138;28;20117;-70
2022/11/25 03:45:04;;;;;;;20.88;7.35;;;9.70;99.90;;;;;;5072178;28;20044;-69
2022/11/25 03:47:30;;;;;;;30.77;8.25;;;9.70;99.90;;;;;;5072650;28;20017;-70
2022/11/25 03:49:55;;;;;;;23.48;6.65;;;9.60;99.90;;;;;;5072210;28;20103;-70
2022/11/25 03:52:21;;;;;;;26.13;8.43;;;9.60;99.90;;;;;;5056090;28;20464;-71
2022/11/25 03:54:46;;;;;;;25.92;7.97;;;9.60;99.90;;;;;;5065884;28;20025;-71
2022/11/25 03:57:12;;;;;;;23.98;7.70;;;9.60;99.90;;;;;;5062387;28;20024;-70
2022/11/25 03:59:38;;;;;;;22.42;8.23;;;9.60;99.90;;;;;;5061476;28;20057;-70
2022/11/25 04:02:04;;;;;;;24.00;7.93;;;9.60;99.90;;;;;;5072584;28;20024;-71
2022/11/25 04:04:30;;;;;;;28.63;9.88;;;9.60;99.90;;;;;;5068237;28;20021;-70
2022/11/25 04:06:56;;;;;;;25.27;9.20;;;9.50;99.90;;;;;;5059748;28;20070;-71
2022/11/25 04:09:21;;;;;;;23.67;7.70;;;9.50;99.90;;;;;;5074175;28;20134;-69
2022/11/25 04:14:31;;;;;;;29.02;8.02;;;9.40;99.90;;;;;;5059891;28;20070;-69
2022/11/25 04:16:57;;;;;;;17.88;6.70;;;9.40;99.90;;;;;;5075445;28;20024;-70
2022/11/25 04:19:23;;;;;;;30.00;8.23;;;9.40;99.90;;;;;;5075972;28;20074;-70
2022/11/25 04:21:49;;;;;;;18.67;6.40;;;9.30;99.90;;;;;;5075941;28;20020;-71
2022/11/25 04:24:15;;;;;;;23.50;9.48;;;9.30;99.90;;;;;;5059238;28;20373;-71
2022/11/25 04:26:40;;;;;;;23.60;7.82;;;9.30;99.90;;;;;;5070099;28;20028;-71
2022/11/25 04:29:06;;;;;;;17.98;6.10;;;9.20;99.90;;;;;;5064715;28;20095;-71
2022/11/25 04:31:32;;;;;;;18.60;6.07;;;9.20;99.90;;;;;;5063157;28;20060;-70
2022/11/25 04:33:58;;;;;;;24.92;8.65;;;9.20;99.90;;;;;;5071849;28;20020;-71
2022/11/25 04:36:23;;;;;;;23.50;6.97;;;9.20;99.90;;;;;;5075327;28;20032;-71
2022/11/25 04:38:49;;;;;;;22.73;6.88;;;9.10;99.90;;;;;;5068889;28;20025;-70
2022/11/25 04:41:15;;;;;;;20.08;6.18;;;9.10;99.90;;;;;;5065969;28;20364;-71
2022/11/25 04:43:40;;;;;;;19.52;7.05;;;9.10;99.90;;;;;;5061244;28;20025;-70
2022/11/25 04:46:06;;;;;;;16.92;6.10;;;9.10;99.90;;;;;;5071727;28;20024;-71
2022/11/25 04:48:32;;;;;;;20.30;6.78;;;9.00;99.90;;;;;;5059782;28;20388;-70
2022/11/25 04:50:57;;;;;;;22.60;5.90;;;9.00;99.90;;;;;;5073483;28;20025;-71
2022/11/25 04:53:23;;;;;;;22.38;7.22;;;9.00;99.90;;;;;;5075387;28;20025;-70
2022/11/25 04:55:49;;;;;;;19.83;6.00;;;8.90;99.90;;;;;;5075180;28;20031;-70
2022/11/25 04:59:38;;;;;;;17.40;5.50;;;8.90;99.90;;;;;;5058880;28;20048;-71
2022/11/25 05:01:00;;;;;;;21.90;5.97;;;8.90;99.90;;;;;;5067004;28;20024;-69
2022/11/25 05:03:26;;;;;;;13.98;5.30;;;8.90;99.90;;;;;;5067139;28;20351;-69
2022/11/25 05:05:51;;;;;;;22.60;7.40;;;8.80;99.90;;;;;;5059905;28;20372;-71
2022/11/25 05:08:17;;;;;;;11.02;4.72;;;8.80;99.90;;;;;;5073167;28;20371;-70
2022/11/25 05:10:42;;;;;;;17.20;6.20;;;8.80;99.90;;;;;;5069272;28;20513;-71
2022/11/25 05:13:08;;;;;;;18.05;5.25;;;8.80;99.90;;;;;;5064622;28;20032;-70
2022/11/25 05:15:33;;;;;;;21.88;7.13;;;8.80;99.90;;;;;;5060514;28;20041;-68
2022/11/25 05:17:59;;;;;;;17.02;5.07;;;8.80;99.90;;;;;;5071520;28;20364;-68
2022/11/25 05:20:25;;;;;;;17.80;6.15;;;8.80;99.90;;;;;;5057938;28;20044;-71
2022/11/25 05:22:50;;;;;;;18.95;5.65;;;8.80;99.90;;;;;;5068505;28;20025;-69
2022/11/25 05:25:16;;;;;;;16.23;5.75;;;8.80;99.90;;;;;;5064758;28;20028;-69
2022/11/25 05:27:41;;;;;;;12.73;4.32;;;8.80;99.90;;;;;;5074648;28;20021;-71
2022/11/25 05:30:08;;;;;;;22.98;7.22;;;8.80;99.90;;;;;;5073755;28;20028;-71
2022/11/25 05:32:33;;;;;;;19.00;6.13;;;8.80;99.90;;;;;;5058745;28;20051;-70
2022/11/25 05:34:59;;;;;;;21.48;6.53;;;8.80;99.90;;;;;;5066470;28;20365;-71
2022/11/25 05:37:24;;;;;;;18.05;7.20;;;8.80;99.90;;;;;;5066083;28;20457;-70
2022/11/25 05:39:50;;;;;;;25.02;8.50;;;8.80;99.90;;;;;;5059522;28;20025;-71
2022/11/25 05:42:16;;;;;;;22.80;6.32;;;8.80;99.90;;;;;;5072811;28;20082;-71
2022/11/25 05:44:42;;;;;;;19.60;7.25;;;8.80;99.90;;;;;;5074744;28;20360;-69
2022/11/25 05:47:07;;;;;;;21.50;7.13;;;8.80;99.90;;;;;;5073951;28;20024;-71
2022/11/25 05:49:33;;;;;;;20.25;6.43;;;8.80;99.90;;;;;;5073158;28;20027;-69
2022/11/25 05:52:00;;;;;;;12.88;4.60;;;8.80;99.90;;;;;;5074014;28;20043;-68
2022/11/25 05:54:25;;;;;;;17.85;6.45;;;8.80;99.90;;;;;;5057479;28;20066;-71
2022/11/25 05:56:51;;;;;;;20.75;6.32;;;8.70;99.90;;;;;;5070860;28;20032;-70
2022/11/25 05:59:17;;;;;;;21.08;6.30;;;8.80;99.90;;;;;;5073845;28;20360;-71
2022/11/25 06:01:42;;;;;;;20.63;5.90;;;8.70;99.90;;;;;;5072940;28;20027;-69
2022/11/25 06:04:10;;;;;;;12.85;4.63;;;8.70;99.90;;;;;;5072805;28;20078;-69
2022/11/25 06:06:36;;;;;;;17.20;6.28;;;8.70;99.90;;;;;;5058924;28;20048;-71
2022/11/25 06:09:01;;;;;;;21.00;6.18;;;8.70;99.90;;;;;;5065119;28;20074;-71
2022/11/25 06:11:27;;;;;;;18.40;6.10;;;8.70;99.90;;;;;;5065959;28;20055;-69
2022/11/25 06:13:54;;;;;;;16.95;5.50;;;8.60;99.90;;;;;;5058518;28;20331;-72
2022/11/25 06:16:21;;;;;;;15.07;5.75;;;8.60;99.90;;;;;;5071105;28;20070;-69
2022/11/25 06:18:47;;;;;;;13.07;4.22;;;8.60;99.90;;;;;;5074044;28;20024;-69
2022/11/25 06:21:14;;;;;;;18.27;6.10;;;8.60;99.90;;;;;;5063884;28;20024;-70
2022/11/25 06:23:39;;;;;;;15.90;3.85;;;8.60;99.90;;;;;;5067407;28;20024;-69
2022/11/25 06:26:08;;;;;;;23.45;6.13;;;8.60;99.90;;;;;;5056945;28;20096;-70
2022/11/25 06:28:35;;;;;;;12.32;4.65;;;8.60;99.90;;;;;;5068876;28;20021;-69
2022/11/25 06:31:22;;;;;;;16.30;4.90;;;8.60;99.90;;;;;;5061291;28;20091;-71
2022/11/25 06:33:49;;;;;;;15.07;4.97;;;8.50;99.90;;;;;;5070696;28;20101;-69
2022/11/25 06:36:18;;;;;;;24.02;6.45;;;8.50;99.90;;;;;;5073415;28;20131;-69
2022/11/25 06:38:45;;;;;;;14.43;6.43;;;8.50;99.90;;;;;;5066215;28;20017;-69
2022/11/25 06:41:11;;;;;;;13.52;5.25;;;8.50;99.90;;;;;;5063160;28;20047;-70
2022/11/25 06:43:37;;;;;;;14.77;5.60;;;8.40;99.90;;;;;;5060367;28;20024;-69
2022/11/25 06:46:05;;;;;;;12.55;4.85;;;8.40;99.90;;;;;;5069699;28;20440;-69
2022/11/25 06:48:31;;;;;;;14.30;5.45;;;8.40;99.90;;;;;;5057496;28;20019;-69
2022/11/25 06:50:59;;;;;;;15.38;5.70;;;8.40;99.90;;;;;;5071025;28;20028;-69
2022/11/25 06:53:25;;;;;;;11.18;4.07;;;8.40;99.90;;;;;;5073255;28;20024;-70
2022/11/25 06:56:07;;;;;;;16.48;4.60;;;8.40;99.90;;;;;;5058174;28;20094;-70
2022/11/25 06:58:33;;;;;;;14.60;4.87;;;8.40;99.90;;;;;;5057771;28;20341;-70
2022/11/25 07:01:12;;;;;;;11.80;4.75;;;8.40;99.90;;;;;;5073519;28;20112;-69
2022/11/25 07:03:39;;;;;;;13.07;5.25;;;8.40;99.90;;;;;;5059733;28;20092;-70
2022/11/25 07:06:05;;;;;;;13.18;4.75;;;8.40;99.90;;;;;;5066446;28;20027;-70
2022/11/25 07:08:30;;;;;;;13.75;4.80;;;8.30;99.90;;;;;;5068323;28;20016;-71
2022/11/25 07:11:07;;;;;;;15.05;4.63;;;8.30;99.90;;;;;;5067266;28;20021;-71
2022/11/25 07:13:33;;;;;;;8.60;3.60;;;8.30;99.90;;;;;;5071756;28;20021;-72
2022/11/25 07:16:03;;;;;;;11.98;4.00;;;8.30;99.90;;;;;;5071319;28;20530;-71
2022/11/25 07:18:31;;;;;;;14.43;4.70;;;8.30;99.90;;;;;;5070729;28;20515;-69
2022/11/25 07:21:05;;;;;;;12.77;4.40;;;8.30;99.90;;;;;;5069994;28;20047;-71
2022/11/25 07:23:32;;;;;;;13.25;4.28;;;8.30;99.90;;;;;;5071809;28;20650;-69
2022/11/25 07:26:02;;;;;;;18.42;4.95;;;8.30;99.90;;;;;;5071734;28;20029;-70
2022/11/25 07:28:28;;;;;;;12.00;4.50;;;8.30;99.90;;;;;;5068191;28;20073;-70
2022/11/25 07:30:54;;;;;;;14.15;4.68;;;8.30;99.90;;;;;;5068051;28;20028;-70
2022/11/25 07:33:20;;;;;;;10.35;3.38;;;8.30;99.90;;;;;;5070730;28;20159;-69
2022/11/25 07:35:45;;;;;;;14.48;4.13;;;8.30;99.90;;;;;;5069767;28;20469;-71
2022/11/25 07:38:11;;;;;;;13.57;3.88;;;8.30;99.90;;;;;;5071499;28;20032;-72
2022/11/25 07:40:36;;;;;;;15.60;3.60;;;8.30;99.90;;;;;;5068689;28;20025;-72
2022/11/25 07:43:02;;;;;;;13.95;3.60;;;8.30;99.90;;;;;;5072524;28;20055;-71
2022/11/25 07:45:27;;;;;;;9.15;3.47;;;8.40;99.90;;;;;;5067711;28;20025;-72
2022/11/25 07:47:53;;;;;;;10.90;3.08;;;8.40;99.90;;;;;;5073389;28;20039;-71
2022/11/25 07:50:19;;;;;;;14.70;4.22;;;8.40;99.90;;;;;;5073047;28;20026;-72
2022/11/25 07:52:45;;;;;;;12.90;3.35;;;8.40;99.90;;;;;;5075422;28;20020;-69
2022/11/25 07:55:10;;;;;;;12.82;2.85;;;8.50;99.90;;;;;;5074832;28;20024;-71
2022/11/25 07:57:36;;;;;;;9.82;2.90;;;8.50;99.90;;;;;;5073142;28;20027;-72
2022/11/25 08:00:03;;;;;;;13.02;4.22;;;8.50;99.90;;;;;;5071784;28;20465;-71
2022/11/25 08:02:28;;;;;;;17.45;5.22;;;8.60;99.90;;;;;;5081037;28;20020;-71
2022/11/25 08:04:54;;;;;;;14.00;4.53;;;8.60;99.90;;;;;;5081103;28;20043;-70
2022/11/25 08:07:19;;;;;;;14.50;4.90;;;8.70;99.90;;;;;;5084100;28;20359;-70
2022/11/25 08:09:45;;;;;;;13.82;4.07;;;8.70;99.90;;;;;;5083084;28;20060;-69
2022/11/25 08:12:10;;;;;;;13.88;5.25;;;8.70;99.90;;;;;;5089656;28;20059;-69
2022/11/25 08:14:36;;;;;;;10.80;2.50;;;8.70;99.90;;;;;;5084846;28;20024;-69
2022/11/25 08:17:04;;;;;;;11.55;3.20;;;8.80;99.90;;;;;;5074719;28;20020;-69
2022/11/25 08:19:31;;;;;;;12.82;3.05;;;8.80;99.90;;;;;;5075698;28;20024;-69
2022/11/25 08:21:56;;;;;;;7.25;2.40;;;8.90;99.90;;;;;;5073661;28;20420;-69
2022/11/25 08:24:22;;;;;;;13.43;3.72;;;8.90;99.90;;;;;;5075447;28;20052;-68
2022/11/25 08:26:48;;;;;;;12.65;3.20;;;8.90;99.90;;;;;;5075569;28;20405;-69
2022/11/25 08:29:16;;;;;;;11.65;3.58;;;8.90;99.90;;;;;;5074952;28;20437;-69
2022/11/25 08:31:42;;;;;;;14.75;4.00;;;8.90;99.90;;;;;;5075049;28;20499;-69
2022/11/25 08:34:08;;;;;;;14.52;3.08;;;9.00;99.90;;;;;;5075734;28;20071;-69
2022/11/25 08:36:34;;;;;;;10.70;4.25;;;9.10;99.90;;;;;;5075837;28;20334;-69
2022/11/25 08:39:03;;;;;;;16.20;2.88;;;9.20;99.90;;;;;;5075806;28;20020;-69
2022/11/25 08:41:32;;;;;;;12.70;3.15;;;9.30;99.90;;;;;;5074296;28;20047;-69
2022/11/25 08:44:00;;;;;;;15.82;3.60;;;9.50;99.90;;;;;;5073999;28;20115;-69
2022/11/25 08:46:28;;;;;;;13.73;2.75;;;9.60;99.90;;;;;;5074696;28;20081;-69
2022/11/25 08:48:54;;;;;;;12.02;2.20;;;9.80;99.90;;;;;;5075556;28;20028;-69
2022/11/25 08:51:26;;;;;;;16.67;2.72;;;9.90;99.90;;;;;;5062890;28;20464;-69
2022/11/25 08:53:52;;;;;;;15.50;2.97;;;10.00;99.90;;;;;;5070344;28;20059;-69
2022/11/25 08:56:19;;;;;;;16.92;2.70;;;10.10;99.90;;;;;;5074098;28;20426;-69
2022/11/25 08:58:45;;;;;;;15.25;4.03;;;10.20;99.90;;;;;;5074826;28;20372;-70
2022/11/25 09:01:12;;;;;;;15.93;3.80;;;10.20;99.90;;;;;;5075177;28;20081;-71
2022/11/25 09:03:42;;;;;;;15.70;3.55;;;10.20;99.90;;;;;;5075039;28;20031;-69
2022/11/25 09:06:08;;;;;;;16.67;2.70;;;10.30;99.90;;;;;;5075036;28;20031;-69
2022/11/25 09:08:36;;;;;;;14.02;2.33;;;10.50;99.90;;;;;;5074937;28;20021;-70
2022/11/25 09:11:02;;;;;;;15.95;4.00;;;10.60;99.90;;;;;;5056814;28;20096;-70
2022/11/25 09:13:27;;;;;;;17.35;3.30;;;10.80;99.90;;;;;;5075096;28;20475;-70
2022/11/25 09:15:53;;;;;;;24.95;3.72;;;11.00;99.90;;;;;;5074601;28;20036;-69
2022/11/25 09:18:24;;;;;;;14.75;3.08;;;11.20;99.90;;;;;;5075146;28;20028;-69
2022/11/25 09:20:50;;;;;;;21.88;3.92;;;11.40;99.90;;;;;;5074994;28;20099;-70
2022/11/25 09:23:15;;;;;;;22.95;4.60;;;11.50;99.90;;;;;;5074647;28;20111;-69
2022/11/25 09:25:41;;;;;;;25.50;3.95;;;11.60;99.90;;;;;;5074690;28;20020;-70
2022/11/25 09:28:06;;;;;;;24.90;3.53;;;11.60;99.90;;;;;;5074498;28;20020;-69
2022/11/25 09:30:32;;;;;;;20.33;3.55;;;11.60;99.90;;;;;;5074614;28;20032;-70
2022/11/25 09:32:57;;;;;;;25.65;4.13;;;11.60;99.90;;;;;;5075207;28;20375;-70
2022/11/25 09:35:24;;;;;;;20.45;3.55;;;11.70;99.90;;;;;;5073210;28;20434;-70
2022/11/25 09:37:49;;;;;;;25.23;4.03;;;11.90;99.90;;;;;;5074445;28;20464;-70
2022/11/25 09:40:38;;;;;;;22.35;4.28;;;12.10;99.90;;;;;;5063871;28;20032;-70
2022/11/25 09:46:56;;;;;;;27.30;5.85;;;12.30;99.90;;;;;;5054609;28;20076;-69
2022/11/25 09:49:56;;;;;;;23.40;7.10;;;12.10;99.90;;;;;;5062022;28;20112;-70
2022/11/25 09:52:45;;;;;;;20.65;3.35;;;12.00;99.90;;;;;;5074176;28;20752;-70
2022/11/25 09:55:21;;;;;;;21.48;4.55;;;12.10;99.90;;;;;;5073615;28;20032;-69
2022/11/25 09:58:24;;;;;;;22.27;3.97;;;12.10;99.90;;;;;;5074030;28;20040;-69
2022/11/25 10:00:51;;;;;;;15.07;3.22;;;12.20;99.90;;;;;;5058039;28;20025;-69
2022/11/25 10:03:26;;;;;;;16.35;3.15;;;12.20;99.90;;;;;;5052875;28;20021;-69
2022/11/25 10:06:25;;;;;;;28.33;4.63;;;12.10;99.90;;;;;;5065286;28;20059;-69
2022/11/25 10:08:57;;;;;;;25.77;4.72;;;12.10;99.90;;;;;;5062413;28;20404;-69
2022/11/25 10:11:41;;;;;;;;;;;11.90;99.90;;;;;;5072213;28;20037;-72
2022/11/25 10:14:31;;;;;;;26.45;4.93;;;11.80;99.90;;;;;;5069244;28;19911;-69
2022/11/25 10:17:12;;;;;;;24.90;3.85;;;11.80;99.90;;;;;;5069356;28;20021;-69
2022/11/25 10:19:49;;;;;;;24.08;4.82;;;11.90;99.90;;;;;;5071980;28;20048;-69
2022/11/25 10:22:42;;;;;;;19.40;3.35;;;12.00;99.90;;;;;;5071319;28;20032;-69
2022/11/25 10:25:31;;;;;;;17.63;4.13;;;12.20;99.90;;;;;;5071491;28;20036;-69
2022/11/25 10:28:00;;;;;;;24.50;3.70;;;12.40;99.90;;;;;;5069848;28;20021;-69
2022/11/25 10:30:44;;;;;;;17.77;3.30;;;12.80;99.90;;;;;;5068060;28;20036;-69
2022/11/25 10:33:19;;;;;;;17.70;2.92;;;13.50;99.90;;;;;;5086815;28;20064;-69
2022/11/25 10:35:51;;;;;;;18.33;2.50;;;14.30;99.90;;;;;;5071503;28;20361;-69
2022/11/25 10:38:37;;;;;;;19.88;3.00;;;14.50;99.90;;;;;;5087140;28;20051;-69
2022/11/25 10:41:04;;;;;;;21.25;3.72;;;14.80;99.90;;;;;;5069234;28;20033;-69
2022/11/25 10:43:31;;;;;;;16.65;3.13;;;15.20;99.90;;;;;;5053503;28;20017;-70
2022/11/25 10:46:18;;;;;;;19.13;3.45;;;15.60;99.90;;;;;;5059369;28;20121;-70
2022/11/25 10:48:52;;;;;;;17.40;2.78;;;15.60;99.90;;;;;;5060786;28;20052;-70
2022/11/25 10:51:29;;;;;;;22.77;4.05;;;15.20;99.90;;;;;;5062877;28;20024;-69
2022/11/25 10:54:18;;;;;;;19.48;3.28;;;14.70;99.90;;;;;;5073099;28;20104;-69
2022/11/25 10:56:55;;;;;;;17.15;2.53;;;14.60;99.90;;;;;;5065681;28;20037;-69
2022/11/25 10:59:33;;;;;;;21.60;3.28;;;14.70;99.90;;;;;;5053563;28;20025;-70
2022/11/25 11:02:23;;;;;;;15.57;3.42;;;15.10;99.90;;;;;;5061840;28;20444;-69
2022/11/25 11:05:09;;;;;;;17.50;3.05;;;15.60;99.90;;;;;;5072758;28;20028;-69
2022/11/25 11:07:43;;;;;;;18.40;3.00;;;15.80;99.90;;;;;;5072661;28;20475;-70
2022/11/25 11:10:25;;;;;;;18.80;3.40;;;15.80;99.90;;;;;;5072885;28;20500;-70
2022/11/25 11:12:56;;;;;;;16.77;2.60;;;15.90;99.90;;;;;;5058598;28;20029;-70
2022/11/25 11:15:29;;;;;;;16.90;3.03;;;15.60;99.90;;;;;;5072476;28;20025;-70
2022/11/25 11:17:56;;;;;;;18.13;3.08;;;15.50;99.90;;;;;;5063867;28;20024;-71
2022/11/25 11:20:26;;;;;;;13.93;3.22;;;15.80;99.90;;;;;;5074647;28;20027;-71
2022/11/25 11:23:08;;;;;;;15.82;2.42;;;16.30;99.90;;;;;;5074168;28;20103;-71
2022/11/25 11:25:36;;;;;;;14.50;2.67;;;16.70;99.90;;;;;;5066241;28;20457;-71
2022/11/25 11:28:23;;;;;;;14.65;2.90;;;17.10;99.90;;;;;;5062443;28;20028;-70
2022/11/25 11:31:00;;;;;;;12.93;2.13;;;17.30;99.90;;;;;;5076030;28;20029;-71
2022/11/25 11:33:36;;;;;;;12.32;2.22;;;17.60;99.90;;;;;;5075473;28;20094;-70
2022/11/25 11:36:04;;;;;;;12.77;2.20;;;17.70;99.90;;;;;;5075762;28;20045;-71
2022/11/25 11:38:45;;;;;;;15.60;2.22;;;17.90;99.90;;;;;;5069270;28;20489;-70
2022/11/25 11:41:47;;;;;;;16.40;2.95;;;18.00;99.90;;;;;;5074063;28;20039;-70
2022/11/25 11:44:40;;;;;;;14.00;2.17;;;18.00;99.90;;;;;;5056459;28;20029;-71
2022/11/25 11:47:29;;;;;;;14.45;2.20;;;18.10;99.90;;;;;;5063500;28;20077;-70
2022/11/25 11:50:34;;;;;;;10.55;2.50;;;18.10;99.90;;;;;;5076270;28;20024;-70
2022/11/25 11:53:34;;;;;;;13.38;2.33;;;18.10;99.90;;;;;;5091264;28;20428;-70
2022/11/25 11:56:19;;;;;;;16.70;2.60;;;18.20;99.90;;;;;;5068386;28;20051;-70
2022/11/25 11:59:03;;;;;;;20.77;3.00;;;18.20;99.90;;;;;;5075382;28;20021;-71
2022/11/25 12:01:40;;;;;;;12.63;2.47;;;18.20;99.90;;;;;;5065175;28;20126;-70
2022/11/25 12:04:17;;;;;;;10.13;2.30;;;18.40;99.90;;;;;;5076213;28;20464;-70
2022/11/25 12:06:55;;;;;;;15.13;2.50;;;18.60;99.90;;;;;;5073406;28;20472;-71
2022/11/25 12:09:24;;;;;;;13.02;2.70;;;18.70;99.90;;;;;;5067307;28;20099;-70
2022/11/25 12:11:57;;;;;;;16.85;2.53;;;18.80;99.90;;;;;;5074834;28;20021;-70
2022/11/25 12:14:40;;;;;;;19.02;2.78;;;18.80;99.90;;;;;;5075616;28;20028;-70
2022/11/25 12:17:14;;;;;;;12.52;2.20;;;18.70;99.90;;;;;;5062132;28;20017;-70
2022/11/25 12:20:02;;;;;;;12.13;2.33;;;18.50;99.90;;;;;;5076074;28;20033;-70
2022/11/25 12:22:35;;;;;;;18.77;2.90;;;18.30;99.90;;;;;;5075183;28;20107;-70
2022/11/25 12:25:26;;;;;;;11.52;2.08;;;18.40;99.90;;;;;;5075062;28;20028;-70
2022/11/25 12:28:07;;;;;;;11.55;2.60;;;18.40;99.90;;;;;;5075960;28;20024;-70
2022/11/25 12:30:39;;;;;;;18.48;3.22;;;18.40;99.90;;;;;;5074332;28;20024;-70
2022/11/25 12:33:22;;;;;;;13.82;2.70;;;18.10;99.90;;;;;;5065580;28;20041;-70
2022/11/25 12:36:06;;;;;;;11.77;2.10;;;18.00;99.90;;;;;;5070140;28;20073;-70
2022/11/25 12:38:53;;;;;;;15.68;3.20;;;17.70;99.90;;;;;;5055460;28;20461;-70
2022/11/25 12:41:46;;;;;;;9.93;2.60;;;17.50;99.90;;;;;;5075315;28;20444;-70
2022/11/25 12:44:27;;;;;;;14.98;2.42;;;17.50;99.90;;;;;;5067912;28;20029;-70
2022/11/25 12:46:55;;;;;;;17.27;2.50;;;17.50;99.90;;;;;;5074736;28;20475;-70
2022/11/25 12:49:26;;;;;;;15.25;2.35;;;17.60;99.90;;;;;;5071877;28;20074;-71
2022/11/25 12:52:15;;;;;;;14.73;2.13;;;17.60;99.90;;;;;;5075177;28;20029;-70
2022/11/25 12:54:51;;;;;;;14.15;2.78;;;17.50;99.90;;;;;;5074855;28;20088;-70
2022/11/25 12:57:19;;;;;;;18.23;3.38;;;17.40;99.90;;;;;;5073951;28;20062;-70
2022/11/25 13:00:10;;;;;;;16.42;4.65;;;17.40;99.90;;;;;;5074240;28;20043;-70
2022/11/25 13:03:13;;;;;;;18.70;4.60;;;17.30;99.90;;;;;;5075088;28;20023;-70
2022/11/25 13:05:56;;;;;;;17.45;3.90;;;17.00;99.90;;;;;;5074656;28;20056;-71
2022/11/25 13:08:40;;;;;;;20.65;3.70;;;16.80;99.90;;;;;;5054977;28;20479;-71
2022/11/25 13:11:25;;;;;;;19.85;4.15;;;16.50;99.90;;;;;;5084577;28;20024;-70